Bridgeport, New Jersey
Current Conditions -  °F | °C
As of 4:54 PM on Monday 20 Oct 2014 (Local Time) from KPHL Reporting Station
Broken Clouds Broken Clouds  
Wind Chill: 62°   Ceiling: 25000
Heat Index: 62°   Visibility: 10mi
Dew Point: 40°   Wind: 6mph
Humidity: 44%   Direction: 180°S
Pressure: 29.98"   Gusts: NA
Location:  39.8°N, 75.35°W
Report Text: KPHL 202054Z 18005KT 10SM SCT190 BKN250 17/04 A2998 RMK AO2 SLP152 T01670044 56016
Loading
Personal Weather Stations






























Interactive Weather Map
Tropical Storm Tracking
New forecast layout! Learn more

10-Day Weather Forecast

Advertisements
Track Severe Weather on mobile